createdAt,value
2018-08-19T00:00:27.780Z,99.90
2018-08-19T00:02:58.982Z,99.90
2018-08-19T00:05:27.365Z,99.90
2018-08-19T00:07:55.913Z,99.90
2018-08-19T00:10:39.292Z,99.90
2018-08-19T00:13:09.087Z,99.90
2018-08-19T00:15:38.277Z,99.90
2018-08-19T00:18:07.789Z,99.90
2018-08-19T00:20:36.186Z,99.90
2018-08-19T00:23:04.758Z,99.90
2018-08-19T00:25:35.596Z,99.90
2018-08-19T00:28:07.397Z,99.90
2018-08-19T00:30:35.803Z,99.90
2018-08-19T00:33:04.530Z,99.90
2018-08-19T00:35:33.213Z,99.90
2018-08-19T00:38:01.890Z,99.90
2018-08-19T00:40:30.265Z,99.90
2018-08-19T00:42:59.049Z,99.90
2018-08-19T00:45:27.643Z,99.90
2018-08-19T00:47:55.981Z,99.90
2018-08-19T00:50:25.345Z,99.90
2018-08-19T00:52:54.374Z,99.90
2018-08-19T00:55:23.000Z,99.90
2018-08-19T00:57:59.365Z,99.90
2018-08-19T01:00:29.077Z,99.90
2018-08-19T01:02:57.461Z,99.90
2018-08-19T01:05:25.809Z,99.90
2018-08-19T01:07:54.183Z,99.90
2018-08-19T01:10:22.552Z,99.90
2018-08-19T01:12:50.889Z,99.90
2018-08-19T01:15:19.266Z,99.90
2018-08-19T01:17:47.626Z,99.90
2018-08-19T01:20:20.440Z,99.90
2018-08-19T01:22:48.882Z,99.90
2018-08-19T01:25:17.382Z,99.90
2018-08-19T01:27:45.911Z,99.90
2018-08-19T01:30:20.573Z,99.90
2018-08-19T01:32:49.044Z,99.90
2018-08-19T01:35:17.850Z,99.90
2018-08-19T01:37:46.202Z,99.90
2018-08-19T01:40:17.779Z,99.90
2018-08-19T01:42:46.642Z,99.90
2018-08-19T01:45:15.013Z,99.90
2018-08-19T01:47:43.337Z,99.90
2018-08-19T01:50:14.209Z,99.90
2018-08-19T01:52:43.329Z,99.90
2018-08-19T01:55:11.734Z,99.90
2018-08-19T01:57:45.564Z,99.90
2018-08-19T02:00:14.739Z,99.90
2018-08-19T02:02:55.889Z,99.90
2018-08-19T02:05:24.700Z,99.90
2018-08-19T02:07:55.517Z,99.90
2018-08-19T02:10:24.338Z,99.90
2018-08-19T02:12:54.213Z,99.90
2018-08-19T02:15:23.748Z,99.90
2018-08-19T02:18:09.749Z,99.90
2018-08-19T02:20:41.288Z,99.90
2018-08-19T02:23:11.000Z,99.90
2018-08-19T02:25:41.583Z,99.90
2018-08-19T02:28:10.813Z,99.90
2018-08-19T02:31:01.852Z,99.90
2018-08-19T02:33:32.465Z,99.90
2018-08-19T02:36:02.990Z,99.90
2018-08-19T02:38:31.549Z,99.90
2018-08-19T02:40:59.941Z,99.90
2018-08-19T02:43:28.306Z,99.90
2018-08-19T02:45:56.667Z,99.90
2018-08-19T02:48:40.746Z,99.90
2018-08-19T02:51:10.266Z,99.90
2018-08-19T02:53:38.636Z,99.90
2018-08-19T02:56:07.029Z,99.90
2018-08-19T02:58:36.299Z,99.90
2018-08-19T03:01:05.372Z,99.90
2018-08-19T03:03:33.761Z,99.90
2018-08-19T03:06:02.598Z,99.90
2018-08-19T03:08:32.586Z,99.90
2018-08-19T03:11:00.993Z,99.90
2018-08-19T03:13:29.349Z,99.90
2018-08-19T03:15:57.777Z,99.90
2018-08-19T03:18:26.241Z,99.90
2018-08-19T03:20:54.626Z,99.90
2018-08-19T03:23:22.974Z,99.90
2018-08-19T03:25:51.328Z,99.90
2018-08-19T03:28:19.681Z,99.90
2018-08-19T03:30:57.262Z,99.90
2018-08-19T03:33:25.581Z,99.90
2018-08-19T03:35:53.886Z,99.90
2018-08-19T03:38:24.811Z,99.90
2018-08-19T03:40:53.997Z,99.90
2018-08-19T03:43:22.914Z,99.90
2018-08-19T03:45:51.227Z,99.90
2018-08-19T03:48:19.585Z,99.90
2018-08-19T03:50:47.893Z,99.90
2018-08-19T03:53:16.233Z,99.90
2018-08-19T03:55:44.569Z,99.90
2018-08-19T03:58:12.921Z,99.90
2018-08-19T04:00:44.284Z,99.90
2018-08-19T04:03:19.109Z,99.90
2018-08-19T04:05:55.706Z,99.90
2018-08-19T04:08:33.277Z,99.90
2018-08-19T04:11:04.293Z,99.90
2018-08-19T04:13:35.182Z,99.90
2018-08-19T04:16:04.537Z,99.90
2018-08-19T04:18:37.577Z,99.90
2018-08-19T04:21:08.082Z,99.90
2018-08-19T04:23:36.832Z,99.90
2018-08-19T04:26:05.558Z,99.90
2018-08-19T04:28:36.613Z,99.90
2018-08-19T04:31:36.461Z,99.90
2018-08-19T04:34:04.806Z,99.90
2018-08-19T04:36:33.154Z,99.90
2018-08-19T04:39:01.515Z,99.90
2018-08-19T04:41:29.833Z,99.90
2018-08-19T04:43:58.221Z,99.90
2018-08-19T04:46:26.576Z,99.90
2018-08-19T04:48:54.929Z,99.90
2018-08-19T04:51:23.321Z,99.90
2018-08-19T04:53:51.678Z,99.90
2018-08-19T04:56:19.996Z,99.90
2018-08-19T04:58:48.324Z,99.90
2018-08-19T05:01:16.661Z,99.90
2018-08-19T05:03:45.850Z,99.90
2018-08-19T05:06:20.818Z,99.90
2018-08-19T05:08:49.161Z,99.90
2018-08-19T05:11:17.488Z,99.90
2018-08-19T05:13:45.889Z,99.90
2018-08-19T05:16:14.284Z,99.90
2018-08-19T05:18:49.674Z,99.90
2018-08-19T05:21:18.435Z,99.90
2018-08-19T05:23:47.205Z,99.90
2018-08-19T05:26:15.521Z,99.90
2018-08-19T05:29:08.145Z,99.90
2018-08-19T05:31:50.052Z,99.90
2018-08-19T05:34:23.820Z,99.90
2018-08-19T05:36:52.162Z,99.90
2018-08-19T05:39:20.502Z,99.90
2018-08-19T05:42:00.642Z,99.90
2018-08-19T05:44:32.118Z,99.90
2018-08-19T05:47:07.803Z,99.90
2018-08-19T05:49:38.041Z,99.90
2018-08-19T05:52:10.932Z,99.90
2018-08-19T05:54:44.646Z,99.90
2018-08-19T05:57:13.994Z,99.90
2018-08-19T05:59:42.329Z,99.90
2018-08-19T06:02:10.732Z,99.90
2018-08-19T06:04:39.074Z,99.90
2018-08-19T06:07:07.454Z,99.90
2018-08-19T06:09:36.125Z,99.90
2018-08-19T06:12:05.047Z,99.90
2018-08-19T06:14:33.609Z,99.90
2018-08-19T06:17:03.592Z,99.90
2018-08-19T06:19:33.533Z,99.90
2018-08-19T06:22:01.973Z,99.90
2018-08-19T06:24:30.328Z,99.90
2018-08-19T06:26:58.630Z,99.90
2018-08-19T06:29:43.346Z,99.90
2018-08-19T06:32:19.752Z,99.90
2018-08-19T06:34:48.179Z,99.90
2018-08-19T06:37:16.449Z,99.90
2018-08-19T06:39:45.775Z,99.90
2018-08-19T06:42:14.150Z,99.90
2018-08-19T06:44:42.509Z,99.90
2018-08-19T06:47:10.893Z,99.90
2018-08-19T06:49:44.641Z,99.90
2018-08-19T06:52:13.133Z,99.90
2018-08-19T06:54:41.374Z,99.90
2018-08-19T06:57:10.527Z,99.90
2018-08-19T06:59:38.974Z,99.90
2018-08-19T07:02:08.137Z,99.90
2018-08-19T07:04:40.551Z,99.90
2018-08-19T07:07:10.839Z,99.90
2018-08-19T07:09:39.598Z,99.90
2018-08-19T07:12:15.582Z,99.90
2018-08-19T07:14:44.602Z,99.90
2018-08-19T07:17:13.061Z,99.90
2018-08-19T07:19:41.440Z,99.90
2018-08-19T07:22:10.535Z,99.90
2018-08-19T07:24:39.907Z,99.90
2018-08-19T07:27:09.222Z,99.90
2018-08-19T07:29:37.594Z,99.90
2018-08-19T07:32:06.907Z,99.90
2018-08-19T07:34:35.245Z,99.90
2018-08-19T07:37:03.680Z,99.90
2018-08-19T07:39:42.165Z,99.90
2018-08-19T07:42:10.503Z,99.90
2018-08-19T07:44:38.920Z,99.90
2018-08-19T07:47:07.312Z,99.90
2018-08-19T07:49:35.734Z,99.90
2018-08-19T07:52:04.150Z,99.90
2018-08-19T07:54:32.477Z,99.90
2018-08-19T07:57:16.259Z,99.90
2018-08-19T07:59:46.918Z,99.90
2018-08-19T08:02:15.280Z,99.90
2018-08-19T08:04:44.596Z,99.90
2018-08-19T08:07:13.774Z,99.90
2018-08-19T08:09:42.675Z,99.90
2018-08-19T08:12:12.249Z,99.90
2018-08-19T08:14:44.850Z,99.90
2018-08-19T08:17:13.206Z,99.90
2018-08-19T08:19:47.121Z,99.90
2018-08-19T08:22:17.054Z,99.90
2018-08-19T08:24:45.457Z,99.90
2018-08-19T08:27:14.010Z,99.90
2018-08-19T08:29:42.475Z,99.90
2018-08-19T08:32:10.826Z,99.90
2018-08-19T08:34:39.165Z,99.90
2018-08-19T08:37:08.130Z,99.90
2018-08-19T08:39:37.454Z,99.90
2018-08-19T08:42:06.293Z,99.90
2018-08-19T08:44:34.736Z,99.90
2018-08-19T08:47:11.932Z,99.90
2018-08-19T08:49:45.639Z,99.90
2018-08-19T08:52:20.322Z,99.90
2018-08-19T08:54:53.970Z,99.90
2018-08-19T08:57:23.222Z,99.90
2018-08-19T08:59:52.126Z,99.90
2018-08-19T09:02:20.581Z,99.90
2018-08-19T09:04:49.953Z,99.90
2018-08-19T09:07:18.677Z,99.90
2018-08-19T09:09:47.687Z,99.90
2018-08-19T09:12:16.781Z,99.90
2018-08-19T09:14:45.478Z,99.90
2018-08-19T09:17:13.828Z,99.90
2018-08-19T09:19:43.272Z,99.90
2018-08-19T09:22:12.322Z,99.90
2018-08-19T09:24:41.232Z,99.90
2018-08-19T09:27:09.671Z,99.90
2018-08-19T09:29:38.001Z,99.90
2018-08-19T09:32:06.336Z,99.90
2018-08-19T09:34:34.690Z,99.90
2018-08-19T09:37:03.114Z,99.90
2018-08-19T09:39:31.745Z,99.90
2018-08-19T09:42:14.749Z,99.90
2018-08-19T09:44:43.929Z,99.90
2018-08-19T09:47:12.313Z,99.90
2018-08-19T09:49:40.690Z,99.90
2018-08-19T09:52:09.149Z,99.90
2018-08-19T09:54:38.382Z,99.90
2018-08-19T09:57:07.754Z,99.90
2018-08-19T09:59:36.258Z,99.90
2018-08-19T10:02:09.552Z,99.90
2018-08-19T10:04:37.913Z,99.90
2018-08-19T10:07:08.449Z,99.70
2018-08-19T10:09:36.794Z,96.70
2018-08-19T10:12:05.256Z,95.90
2018-08-19T10:14:33.635Z,95.00
2018-08-19T10:17:02.032Z,94.10
2018-08-19T10:19:30.366Z,93.50
2018-08-19T10:21:58.761Z,92.80
2018-08-19T10:24:28.430Z,93.20
2018-08-19T10:26:57.100Z,91.70
2018-08-19T10:29:25.570Z,92.60
2018-08-19T10:31:55.566Z,92.10
2018-08-19T10:34:25.206Z,91.30
2018-08-19T10:36:53.896Z,90.50
2018-08-19T10:39:22.491Z,87.40
2018-08-19T10:41:51.101Z,85.60
2018-08-19T10:44:19.424Z,87.90
2018-08-19T10:46:47.785Z,86.40
2018-08-19T10:49:16.114Z,86.00
2018-08-19T10:51:45.706Z,85.00
2018-08-19T10:54:14.793Z,81.30
2018-08-19T10:56:43.265Z,79.70
2018-08-19T10:59:17.252Z,79.80
2018-08-19T11:01:45.602Z,79.50
2018-08-19T11:04:13.905Z,76.50
2018-08-19T11:06:42.369Z,73.50
2018-08-19T11:09:10.674Z,72.90
2018-08-19T11:11:39.022Z,71.20
2018-08-19T11:14:10.205Z,67.50
2018-08-19T11:16:38.565Z,66.10
2018-08-19T11:19:06.918Z,65.40
2018-08-19T11:21:38.351Z,63.90
2018-08-19T11:24:17.677Z,62.00
2018-08-19T11:26:50.318Z,58.30
2018-08-19T11:29:18.634Z,56.20
2018-08-19T11:31:47.007Z,55.40
2018-08-19T11:34:15.308Z,55.10
2018-08-19T11:36:44.868Z,54.00
2018-08-19T11:39:16.410Z,52.20
2018-08-19T11:41:44.756Z,50.80
2018-08-19T11:44:16.241Z,51.30
2018-08-19T11:46:44.588Z,50.00
2018-08-19T11:49:15.145Z,49.30
2018-08-19T11:51:51.316Z,47.70
2018-08-19T11:54:20.493Z,47.80
2018-08-19T11:57:22.753Z,47.00
2018-08-19T11:59:51.134Z,46.60
2018-08-19T12:02:20.778Z,45.40
2018-08-19T12:04:49.120Z,46.00
2018-08-19T12:07:17.937Z,45.50
2018-08-19T12:09:52.790Z,44.50
2018-08-19T12:12:33.813Z,44.20
2018-08-19T12:15:02.149Z,44.70
2018-08-19T12:17:30.494Z,42.70
2018-08-19T12:19:58.819Z,42.90
2018-08-19T12:22:27.234Z,41.40
2018-08-19T12:24:55.540Z,43.10
2018-08-19T12:27:23.936Z,42.00
2018-08-19T12:30:00.508Z,40.60
2018-08-19T12:32:29.344Z,41.10
2018-08-19T12:34:59.877Z,42.10
2018-08-19T12:37:31.498Z,41.90
2018-08-19T12:40:01.065Z,43.10
2018-08-19T12:42:30.178Z,43.00
2018-08-19T12:45:06.585Z,42.30
2018-08-19T12:47:36.274Z,42.90
2018-08-19T12:50:09.488Z,43.40
2018-08-19T12:52:38.710Z,41.80
2018-08-19T12:55:15.028Z,41.00
2018-08-19T12:57:44.010Z,41.90
2018-08-19T13:00:25.296Z,42.40
2018-08-19T13:02:53.983Z,41.30
2018-08-19T13:05:22.704Z,41.00
2018-08-19T13:07:51.425Z,42.10
2018-08-19T13:10:20.081Z,43.40
2018-08-19T13:12:49.732Z,43.20
2018-08-19T13:15:18.101Z,42.10
2018-08-19T13:17:46.458Z,45.30
2018-08-19T13:20:14.790Z,44.90
2018-08-19T13:22:49.447Z,42.80
2018-08-19T13:25:22.250Z,41.60
2018-08-19T13:27:50.580Z,43.30
2018-08-19T13:30:19.805Z,43.90
2018-08-19T13:32:48.614Z,44.30
2018-08-19T13:35:16.986Z,44.80
2018-08-19T13:37:45.498Z,43.40
2018-08-19T13:40:14.509Z,44.30
2018-08-19T13:42:43.146Z,45.20
2018-08-19T13:45:14.294Z,43.40
2018-08-19T13:47:44.101Z,44.30
2018-08-19T13:50:12.769Z,45.30
2018-08-19T13:52:41.565Z,45.40
2018-08-19T13:55:12.533Z,44.50
2018-08-19T13:57:40.946Z,45.10
2018-08-19T14:00:11.997Z,46.80
2018-08-19T14:02:40.423Z,46.00
2018-08-19T14:05:08.854Z,47.90
2018-08-19T14:07:37.214Z,49.20
2018-08-19T14:10:06.718Z,50.80
2018-08-19T14:12:35.245Z,50.40
2018-08-19T14:15:03.673Z,50.90
2018-08-19T14:17:32.008Z,51.60
2018-08-19T14:20:00.343Z,52.60
2018-08-19T14:22:33.870Z,53.90
2018-08-19T14:25:02.198Z,52.80
2018-08-19T14:27:30.505Z,52.40
2018-08-19T14:29:58.893Z,52.60
2018-08-19T14:32:35.250Z,53.70
2018-08-19T14:35:04.970Z,53.90
2018-08-19T14:37:33.412Z,53.30
2018-08-19T14:40:02.342Z,55.10
2018-08-19T14:42:30.641Z,56.40
2018-08-19T14:44:59.774Z,55.50
2018-08-19T14:47:28.680Z,56.70
2018-08-19T14:49:58.070Z,56.50
2018-08-19T14:52:27.070Z,56.90
2018-08-19T14:54:55.400Z,56.90
2018-08-19T14:57:23.781Z,56.10
2018-08-19T14:59:52.357Z,57.20
2018-08-19T15:02:20.730Z,56.80
2018-08-19T15:04:49.069Z,56.70
2018-08-19T15:07:17.532Z,56.50
2018-08-19T15:09:47.468Z,57.10
2018-08-19T15:12:18.569Z,56.50
2018-08-19T15:14:48.011Z,56.10
2018-08-19T15:17:16.388Z,55.20
2018-08-19T15:19:46.882Z,57.10
2018-08-19T15:22:15.431Z,57.20
2018-08-19T15:24:43.814Z,58.10
2018-08-19T15:27:12.228Z,56.10
2018-08-19T15:29:41.904Z,56.30
2018-08-19T15:32:12.706Z,57.30
2018-08-19T15:34:40.941Z,58.10
2018-08-19T15:37:09.363Z,57.80
2018-08-19T15:39:37.819Z,56.70
2018-08-19T15:42:06.318Z,56.70
2018-08-19T15:44:34.650Z,57.20
2018-08-19T15:47:03.101Z,56.80
2018-08-19T15:49:31.420Z,56.90
2018-08-19T15:51:59.862Z,57.80
2018-08-19T15:54:28.910Z,55.90
2018-08-19T15:57:02.762Z,56.10
2018-08-19T15:59:35.565Z,56.00
2018-08-19T16:02:04.245Z,57.80
2018-08-19T16:04:32.658Z,57.60
2018-08-19T16:07:01.273Z,56.00
2018-08-19T16:09:30.201Z,56.00
2018-08-19T16:11:58.558Z,56.70
2018-08-19T16:14:28.090Z,57.00
2018-08-19T16:16:57.361Z,57.30
2018-08-19T16:19:25.784Z,56.90
2018-08-19T16:21:55.427Z,57.10
2018-08-19T16:24:24.059Z,56.60
2018-08-19T16:26:52.402Z,57.40
2018-08-19T16:29:20.761Z,57.30
2018-08-19T16:31:49.159Z,56.80
2018-08-19T16:34:17.530Z,57.50
2018-08-19T16:36:47.569Z,57.30
2018-08-19T16:39:17.165Z,57.90
2018-08-19T16:41:45.453Z,57.70
2018-08-19T16:44:13.790Z,57.70
2018-08-19T16:46:42.412Z,58.50
2018-08-19T16:49:10.746Z,58.60
2018-08-19T16:51:39.169Z,58.70
2018-08-19T16:54:07.798Z,59.10
2018-08-19T16:56:36.125Z,59.30
2018-08-19T16:59:04.561Z,60.50
2018-08-19T17:01:32.898Z,60.90
2018-08-19T17:04:01.245Z,61.40
2018-08-19T17:06:29.653Z,60.20
2018-08-19T17:08:57.997Z,60.20
2018-08-19T17:11:26.318Z,62.30
2018-08-19T17:13:55.646Z,62.50
2018-08-19T17:16:24.066Z,62.40
2018-08-19T17:18:52.388Z,63.40
2018-08-19T17:21:20.722Z,63.80
2018-08-19T17:23:49.817Z,63.80
2018-08-19T17:26:21.541Z,64.20
2018-08-19T17:28:50.895Z,64.60
2018-08-19T17:31:19.504Z,65.20
2018-08-19T17:33:47.854Z,66.30
2018-08-19T17:36:22.197Z,67.00
2018-08-19T17:38:50.646Z,67.30
2018-08-19T17:41:20.034Z,67.70
2018-08-19T17:43:48.366Z,67.80
2018-08-19T17:46:19.010Z,68.00
2018-08-19T17:48:47.369Z,68.20
2018-08-19T17:51:31.220Z,69.20
2018-08-19T17:53:59.600Z,69.90
2018-08-19T17:56:27.948Z,70.20
2018-08-19T17:58:56.321Z,70.80
2018-08-19T18:01:24.746Z,70.70
2018-08-19T18:03:53.092Z,71.70
2018-08-19T18:06:21.440Z,72.30
2018-08-19T18:08:50.949Z,73.00
2018-08-19T18:11:19.970Z,74.30
2018-08-19T18:13:48.746Z,75.00
2018-08-19T18:16:17.126Z,75.60
2018-08-19T18:18:46.270Z,76.80
2018-08-19T18:21:26.141Z,76.90
2018-08-19T18:23:54.453Z,78.40
2018-08-19T18:26:22.794Z,77.50
2018-08-19T18:28:51.133Z,78.90
2018-08-19T18:31:22.761Z,80.20
2018-08-19T18:33:57.809Z,79.40
2018-08-19T18:36:27.405Z,80.30
2018-08-19T18:38:56.077Z,80.40
2018-08-19T18:41:29.830Z,80.90
2018-08-19T18:43:59.484Z,81.00
2018-08-19T18:46:28.170Z,81.90
2018-08-19T18:49:14.112Z,82.30
2018-08-19T18:51:46.924Z,83.60
2018-08-19T18:54:21.897Z,85.70
2018-08-19T18:56:50.257Z,86.80
2018-08-19T18:59:18.577Z,88.40
2018-08-19T19:01:46.953Z,88.30
2018-08-19T19:04:15.266Z,89.30
2018-08-19T19:06:43.686Z,90.00
2018-08-19T19:09:12.006Z,90.30
2018-08-19T19:11:40.324Z,91.20
2018-08-19T19:14:16.003Z,92.00
2018-08-19T19:16:46.502Z,94.50
2018-08-19T19:19:14.813Z,96.80
2018-08-19T19:21:44.412Z,98.50
2018-08-19T19:24:12.722Z,99.90
2018-08-19T19:26:41.069Z,99.90
2018-08-19T19:29:14.993Z,99.90
2018-08-19T19:31:43.315Z,99.90
2018-08-19T19:34:15.003Z,99.90
2018-08-19T19:36:43.290Z,99.90
2018-08-19T19:39:11.653Z,99.90
2018-08-19T19:41:39.982Z,99.90
2018-08-19T19:44:23.222Z,99.90
2018-08-19T19:46:52.423Z,99.90
2018-08-19T19:49:21.144Z,99.90
2018-08-19T19:51:54.789Z,99.90
2018-08-19T19:54:23.109Z,99.90
2018-08-19T19:56:51.427Z,99.90
2018-08-19T19:59:23.253Z,99.90
2018-08-19T20:01:51.589Z,99.90
2018-08-19T20:04:19.904Z,99.90
2018-08-19T20:06:48.214Z,99.90
2018-08-19T20:09:16.527Z,99.90
2018-08-19T20:11:44.843Z,99.90
2018-08-19T20:14:13.161Z,99.90
2018-08-19T20:16:41.484Z,99.90
2018-08-19T20:19:09.804Z,99.90
2018-08-19T20:21:38.118Z,99.90
2018-08-19T20:24:06.618Z,99.90
2018-08-19T20:26:35.006Z,99.90
2018-08-19T20:29:03.824Z,99.90
2018-08-19T20:31:32.223Z,99.90
2018-08-19T20:34:00.620Z,99.90
2018-08-19T20:36:29.996Z,99.90
2018-08-19T20:38:59.197Z,99.90
2018-08-19T20:41:28.227Z,99.90
2018-08-19T20:43:56.599Z,99.90
2018-08-19T20:46:25.109Z,99.90
2018-08-19T20:48:53.790Z,99.90
2018-08-19T20:51:23.569Z,99.90
2018-08-19T20:53:52.117Z,99.90
2018-08-19T20:56:20.515Z,99.90
2018-08-19T20:58:49.812Z,99.90
2018-08-19T21:01:24.632Z,99.90
2018-08-19T21:03:53.269Z,99.90
2018-08-19T21:06:21.703Z,99.90
2018-08-19T21:08:50.938Z,99.90
2018-08-19T21:11:19.272Z,99.90
2018-08-19T21:13:47.649Z,99.90
2018-08-19T21:16:15.982Z,99.90
2018-08-19T21:18:44.329Z,99.90
2018-08-19T21:21:12.670Z,99.90
2018-08-19T21:23:40.997Z,99.90
2018-08-19T21:26:09.353Z,99.90
2018-08-19T21:28:37.706Z,99.90
2018-08-19T21:31:06.052Z,99.90
2018-08-19T21:33:34.390Z,99.90
2018-08-19T21:36:02.730Z,99.90
2018-08-19T21:38:31.113Z,99.90
2018-08-19T21:40:59.438Z,99.90
2018-08-19T21:43:30.353Z,99.90
2018-08-19T21:45:59.601Z,99.90
2018-08-19T21:48:28.017Z,99.90
2018-08-19T21:50:56.409Z,99.90
2018-08-19T21:53:25.070Z,99.90
2018-08-19T21:55:53.598Z,99.90
2018-08-19T21:58:21.943Z,99.90
2018-08-19T22:01:00.760Z,99.90
2018-08-19T22:03:34.641Z,99.90
2018-08-19T22:06:05.781Z,99.90
2018-08-19T22:08:34.122Z,99.90
2018-08-19T22:11:02.497Z,99.90
2018-08-19T22:13:30.882Z,99.90
2018-08-19T22:15:59.295Z,99.90
2018-08-19T22:18:29.553Z,99.90
2018-08-19T22:21:06.766Z,99.90
2018-08-19T22:23:39.410Z,99.90
2018-08-19T22:26:08.225Z,99.90
2018-08-19T22:28:36.600Z,99.90
2018-08-19T22:31:17.382Z,99.90
2018-08-19T22:33:47.923Z,99.90
2018-08-19T22:36:16.689Z,99.90
2018-08-19T22:38:45.090Z,99.90
2018-08-19T22:41:13.422Z,99.90
2018-08-19T22:43:41.886Z,99.90
2018-08-19T22:46:10.250Z,99.90
2018-08-19T22:48:43.567Z,99.90
2018-08-19T22:51:12.912Z,99.90
2018-08-19T22:53:41.349Z,99.90
2018-08-19T22:56:09.721Z,99.90
2018-08-19T22:58:38.248Z,99.90
2018-08-19T23:01:07.070Z,99.90
2018-08-19T23:03:35.468Z,99.90
2018-08-19T23:06:03.861Z,99.90
2018-08-19T23:08:33.385Z,99.90
2018-08-19T23:11:03.357Z,99.90
2018-08-19T23:13:42.939Z,99.90
2018-08-19T23:16:12.355Z,99.90
2018-08-19T23:18:41.617Z,99.90
2018-08-19T23:21:10.330Z,99.90
2018-08-19T23:23:38.738Z,99.90
2018-08-19T23:26:07.309Z,99.90
2018-08-19T23:28:35.657Z,99.90
2018-08-19T23:31:04.056Z,99.90
2018-08-19T23:33:32.625Z,99.90
2018-08-19T23:36:00.976Z,99.90
2018-08-19T23:38:29.325Z,99.90
2018-08-19T23:40:57.708Z,99.90
2018-08-19T23:43:26.050Z,99.90
2018-08-19T23:45:54.393Z,99.90
2018-08-19T23:48:22.788Z,99.90
2018-08-19T23:50:51.118Z,99.90
2018-08-19T23:53:19.456Z,99.90
2018-08-19T23:55:47.822Z,99.90
2018-08-19T23:58:16.154Z,99.90
